Uvalde Research's Hourly Summary for Monday, April 17, 2017
Hour Temp
(f)
RH
(%)
Solar Rad.
(MJ/m2)
Rainfall
(in)
Wind
(mph)
4/17/2017 12:00 AM 0 0 0 0 0
4/17/2017 1:00 AM 63 99 0 0.16 3.38
4/17/2017 2:00 AM 65 89 0 0 2.01
4/17/2017 3:00 AM 64 91 0 0 1.21
4/17/2017 4:00 AM 63 93 0 0 0.14
4/17/2017 5:00 AM 62 95 0 0 0
4/17/2017 6:00 AM 62 96 0 0 0.52
4/17/2017 7:00 AM 62 96 0.07 0 2.09
4/17/2017 8:00 AM 64 95 0.37 0 1.48
4/17/2017 9:00 AM 67 90 1.06 0 1.95
4/17/2017 10:00 AM 71 84 1.89 0 2.9
4/17/2017 11:00 AM 73 83 2.19 0 3.13
4/17/2017 12:00 PM 75 76 1.66 0 3
4/17/2017 1:00 PM 76 76 1.63 0 2.79
4/17/2017 2:00 PM 77 74 2.22 0 2.29
4/17/2017 3:00 PM 78 68 2.31 0 1.95
4/17/2017 4:00 PM 79 65 1.45 0 1.57
4/17/2017 5:00 PM 70 76 0.34 0 4.01
4/17/2017 6:00 PM 68 78 0.45 0 2.33
4/17/2017 7:00 PM 69 78 0.28 0 1.68
4/17/2017 8:00 PM 67 82 0 0 0.33
4/17/2017 9:00 PM 67 90 0 0 1.28
4/17/2017 10:00 PM 66 89 0 0 2.44
4/17/2017 11:00 PM 65 90 0 0 1.42
Data Summary 65 81 15.92 0.16 1.83